LEAMLEBG

Guest
Details From LEAM - Almeria
To LEBG - Burgos
Flight Number -
Tags generated
Created
Modified
Stats Distance 343 nm / 636 km
Max Altitude 34,000 ft / 10,363 m
Waypoints 7
Social Downloads 0
Likes 0
Share VATSIM

Download

Looking for another format? Having issues loading an existing format? Contact us
Advertisement - Login to hide

Notes

Basic altitude profile: - Ascent Rate: 2500ft/min - Ascent Speed: 250kts - Cruise Altitude: 35000ft - Cruise Speed: 420kts - Descent Rate: 1500ft/min - Descent Speed: 250kts Options: - Use NATs: yes - Use PACOTS: yes - Use low airways: yes - Use high airways: yes

Route

LEAM YES UM143 CJN UN10 PINAR LEBG

ID Type Via Altitude Latitude Longitude Leg Dist Tot Dist Heading (true) Name
O LEAM APT - 0 ft / 0 m 36.84393˚ -2.37010˚ - 0 nm - Almeria
YES VOR - 31,500 ft / 9,601 m 38.36078˚ -2.35275˚ 91 nm 91 nm 1° / 1° YESTE VOR-DME
ANANA FIX UM143 (AWY-HI) 34,000 ft / 10,363 m 39.00000˚ -2.41287˚ 38 nm 129 nm 356° / 356° -
TEMIR FIX UM143 (AWY-HI) 32,500 ft / 9,906 m 39.94690˚ -2.50395˚ 57 nm 186 nm 356° / 356° -
CJN VOR UM143 (AWY-HI) 28,000 ft / 8,534 m 40.37196˚ -2.54461˚ 25 nm 212 nm 356° / 356° CASTEJON VOR-DME
PINAR FIX UN10 (AWY-HI) 24,500 ft / 7,468 m 40.98029˚ -2.59917˚ 36 nm 248 nm 356° / 356° -
O LEBG APT - 0 ft / 0 m 42.35689˚ -3.61422˚ 94 nm 343 nm 331° / 331° Burgos

Altitude Profile

Advertisement - Login to hide

Weather


0- 5 10 15 20 25 30 35+ Temperature / ° C

Clouds and Precipitation
Forecast for 2017-12-18 18:00 UTC. Updated 5 minutes ago

Ground ~20,000 ft ~40,000 ft Winds

LEAM

Details ICAO LEAM (LEI)
Name Almeria
Region Spain
Timezone Unknown (UTC+0.0)
Stats Elevation 70 ft / 21 m (AMSL)
Location 36.843935° -2.370097°
Runways 1
Magnetic Variation 0.286° W

METAR

LEAM 181500Z 19003KT 140V250 CAVOK 14/03 Q1028

Decode

TAF

TAF TAF LEAM 181400Z 1815/1915 21008KT CAVOK TX17/1914Z TN07/1907Z BECMG 1822/1824 34010KT

Decode

Departure Runways

ID Width Length Bearing (true) Bearing (mag) Surface Threshold Offset Overrun Length
08 148 ft / 45 m 10,484 ft / 3,196 m 72.94° 73.23° Asphalt 492 ft / 150 m 191 ft / 58 m
26 148 ft / 45 m 10,484 ft / 3,196 m 252.96° 253.25° Asphalt 0 ft / 0 m 150 ft / 46 m

LEBG

Details ICAO LEBG (RGS)
Name Burgos
Region Spain
Timezone Europe/Madrid (UTC+1.0)
Stats Elevation 2,961 ft / 903 m (AMSL)
Location 42.356895° -3.614221°
Runways 1
Magnetic Variation 0.786° W

METAR

LEBG 181513Z VRB02KT 4000 -RA SCT012 BKN020 05/02 Q1030

Decode

TAF

Not found

Destination Runways

ID Width Length Bearing (true) Bearing (mag) Surface Threshold Offset Overrun Length
04 148 ft / 45 m 6,423 ft / 1,958 m 43.31° 44.10° Asphalt 0 ft / 0 m 0 ft / 0 m
22 148 ft / 45 m 6,423 ft / 1,958 m 223.32° 224.11° Asphalt 0 ft / 0 m 0 ft / 0 m

Popular Alternatives